»·PEaware :: N33QM KWHP-KSBA

N33QM :: KWHP-KSBA

FLIGHT INFORMATION

Flight Status: Arrived
Operator: Privately registered:
United States
More flights under this callsign
Pilot: Matthew A. (24018)
Aircraft: CESSNA 172 SKYHAWK
(C172)
More flights by this aircraft type
Origin: KWHP Whiteman
United States
Destination: KSBA Santa Barbara Mun
United States
More flights between these airports :: More routes between these airports
Route: +
File this flight plan on PilotEdge
Remarks:
Altitude:
(Current/Filed)
4,500ft
Speed:
(Current/Filed)
0kts
Departed: 15-Apr-19 08:39 PM
Arrived: 15-Apr-19 09:15 PM
Distance/Time
Traveled:
71nm/0:35
Distance/Time
To Go:
Arrived

Flight Plot

Page will automatically refresh every two minutes.

Flight plan parsing failed; only flown route is shown


Map Options




Map Legend


Flown Route
Filed Route
Departure Airport
Arrival Airport
Navaid (VOR, NDB)
Fix

Horizontal Profiles

Position Reports

Time Latitude Longitude Heading Altitude Ground
Speed
15-Apr-19 20:37 34.238300 -118.642243 262 4657ft 112kts
15-Apr-19 20:38 34.237980 -118.680128 272 4642ft 115kts
15-Apr-19 20:39 34.239513 -118.718546 276 4540ft 109kts
15-Apr-19 20:40 34.243823 -118.754706 287 4513ft 107kts
15-Apr-19 20:41 34.253041 -118.788888 287 4513ft 106kts
15-Apr-19 20:42 34.262184 -118.822849 285 4513ft 106kts
15-Apr-19 20:43 34.270390 -118.857140 285 4512ft 106kts
15-Apr-19 20:44 34.278736 -118.892053 286 4476ft 107kts
15-Apr-19 20:45 34.286878 -118.926650 282 4477ft 106kts
15-Apr-19 20:46 34.291760 -118.961845 278 4477ft 106kts
15-Apr-19 20:47 34.295934 -118.997233 278 4477ft 106kts
15-Apr-19 20:48 34.300118 -119.032586 278 4477ft 106kts
15-Apr-19 20:49 34.304314 -119.067983 278 4477ft 106kts
15-Apr-19 20:50 34.308546 -119.103460 280 4476ft 106kts
15-Apr-19 20:51 34.314226 -119.138635 279 4477ft 106kts
15-Apr-19 20:52 34.319270 -119.173838 281 4477ft 106kts
15-Apr-19 20:53 34.325005 -119.208909 281 4477ft 106kts
15-Apr-19 20:54 34.330768 -119.244121 281 4477ft 106kts
15-Apr-19 20:55 34.336498 -119.279164 283 4476ft 106kts
15-Apr-19 20:56 34.342274 -119.314403 281 4477ft 106kts
15-Apr-19 20:57 34.348028 -119.349434 281 4477ft 106kts
15-Apr-19 20:58 34.353796 -119.384586 281 4477ft 106kts
15-Apr-19 20:59 34.359577 -119.419793 281 4477ft 106kts
15-Apr-19 21:00 34.365388 -119.455145 281 4477ft 107kts
15-Apr-19 21:01 34.371237 -119.490698 281 4477ft 107kts
15-Apr-19 21:02 34.377068 -119.526117 281 4477ft 107kts
15-Apr-19 21:03 34.384155 -119.561111 293 4337ft 107kts
15-Apr-19 21:04 34.399419 -119.591923 305 4076ft 107kts
15-Apr-19 21:05 34.417153 -119.620871 305 3778ft 106kts
15-Apr-19 21:06 34.426641 -119.654632 276 3272ft 108kts
15-Apr-19 21:07 34.430092 -119.686273 277 2674ft 79kts
15-Apr-19 21:08 34.430517 -119.711431 268 2216ft 67kts
15-Apr-19 21:09 34.430044 -119.734139 267 1757ft 67kts
15-Apr-19 21:11 34.429584 -119.756690 261 1383ft 66kts
15-Apr-19 21:12 34.429219 -119.778399 268 1068ft 63kts
15-Apr-19 21:13 34.428657 -119.799805 267 720ft 63kts
15-Apr-19 21:14 34.428222 -119.821063 268 316ft 62kts
15-Apr-19 21:15 34.427793 -119.840535 268 14ft 35kts
15-Apr-19 21:16 34.428566 -119.841969 347 14ft 0kts
15-Apr-19 21:17 34.428604 -119.841980 345 14ft 0kts
15-Apr-19 21:18 34.429953 -119.841760 64 14ft 10kts
15-Apr-19 21:19 34.431232 -119.839112 304 14ft 0kts
15-Apr-19 21:20 34.431232 -119.839112 304 14ft 0kts
15-Apr-19 21:21 34.431232 -119.839112 304 14ft 0kts
15-Apr-19 21:22 34.431232 -119.839112 304 14ft 0kts
15-Apr-19 21:23 34.431232 -119.839112 304 14ft 0kts
15-Apr-19 21:24 34.431232 -119.839112 304 14ft 0kts
15-Apr-19 21:25 34.431232 -119.839112 304 14ft 0kts
15-Apr-19 21:26 34.431232 -119.839112 304 14ft 0kts
15-Apr-19 21:26 34.431232 -119.839112 304 14ft 0kts
15-Apr-19 21:28 34.431232 -119.839112 304 14ft 0kts
15-Apr-19 21:29 34.431232 -119.839112 304 14ft 0kts

Navigation Log

Ident Type
Flight plan parsing failed, navigation log unavailable